PWSweather.com
Personal Weather Stations
Station Observations
KWIPARKF
Flambeau River State Forest, Park Falls, WI 54552

Flambeau River State ForestPark Falls, WI 54552

Lat: 45.81943, Lon: -90.61676

Elevation: 1476

Station Type: Davis Vantage Pro2 Plus

Latest ConditionsUpdated 5:00:03 AM CST Tuesday, Dec 10, 2019
Currently Today's Max Today's Min Today's Average
Temperature 4.4°F-15.3°C 8.3°F-13.2°C 4.4°F-15.3°C 6.6°F-14.1°C
Dew Point 0.9°F-17.3°C 5.7°F-14.6°C 0.9°F-17.3°C 3.4°F-15.9°C
Winds Calm Calm Calm -Calm - - Calm Calm
Wind Gusts -- 5.8 mph9.3 kmh - -
Humidity 85% 89% 85% 86%
Pressure 30.07 in1018.3 mb 30.07 in1018.3 mb 29.93 in1013.5 mb -
Hour Temp Dew Point Humidity Winds Wind Gusts Pressure Precip Precip Rate Daily Precip Total
05:00 AM 4.4°F-15.3°C 0.9°F-17.3°C 85% Calm Calm -- 30.07 in1018.3 mb - 0.00 in0.0 mm 0.00 in0.0 mm
04:50 AM 4.5°F-15.3°C 1.0°F-17.2°C 85% Calm Calm -- 30.07 in1018.3 mb - 0.00 in0.0 mm 0.00 in0.0 mm
04:40 AM 4.7°F-15.2°C 1.4°F-17.0°C 86% Calm Calm -- 30.06 in1017.9 mb - 0.00 in0.0 mm 0.00 in0.0 mm
04:30 AM 4.8°F-15.1°C 1.3°F-17.1°C 85% Calm Calm -- 30.06 in1017.9 mb - 0.00 in0.0 mm 0.00 in0.0 mm
04:20 AM 5.0°F-15.0°C 1.5°F-16.9°C 85% Calm Calm -- 30.05 in1017.6 mb - 0.00 in0.0 mm 0.00 in0.0 mm
04:10 AM 5.1°F-14.9°C 1.6°F-16.9°C 85% Calm Calm -- 30.05 in1017.6 mb - 0.00 in0.0 mm 0.00 in0.0 mm
04:00 AM 5.4°F-14.8°C 2.1°F-16.6°C 86% Calm Calm -- 30.04 in1017.3 mb - 0.00 in0.0 mm 0.00 in0.0 mm
03:50 AM 5.5°F-14.7°C 2.2°F-16.6°C 86% Calm Calm -- 30.04 in1017.3 mb - 0.00 in0.0 mm 0.00 in0.0 mm
03:40 AM 5.7°F-14.6°C 2.2°F-16.6°C 85% Calm Calm -- 30.04 in1017.3 mb - 0.00 in0.0 mm 0.00 in0.0 mm
03:30 AM 5.9°F-14.5°C 2.6°F-16.3°C 86% Calm Calm -- 30.04 in1017.3 mb - 0.00 in0.0 mm 0.00 in0.0 mm
03:20 AM 6.0°F-14.4°C 2.7°F-16.3°C 86% Calm Calm -- 30.03 in1016.9 mb - 0.00 in0.0 mm 0.00 in0.0 mm
03:10 AM 6.0°F-14.4°C 2.7°F-16.3°C 86% Calm Calm -- 30.03 in1016.9 mb - 0.00 in0.0 mm 0.00 in0.0 mm
03:00 AM 6.1°F-14.4°C 2.6°F-16.3°C 85% Calm Calm -- 30.02 in1016.6 mb - 0.00 in0.0 mm 0.00 in0.0 mm
02:50 AM 6.2°F-14.3°C 2.7°F-16.3°C 85% Calm Calm 1.2 mph1.9 kmh 30.02 in1016.6 mb - 0.00 in0.0 mm 0.00 in0.0 mm
02:40 AM 6.4°F-14.2°C 2.9°F-16.2°C 85% Calm Calm -- 30.01 in1016.3 mb - 0.00 in0.0 mm 0.00 in0.0 mm
02:30 AM 6.6°F-14.1°C 3.0°F-16.1°C 85% Calm Calm -- 30.01 in1016.3 mb - 0.00 in0.0 mm 0.00 in0.0 mm
02:20 AM 6.8°F-14.0°C 3.3°F-15.9°C 85% Calm Calm 5.8 mph9.3 kmh 30.00 in1015.9 mb - 0.00 in0.0 mm 0.00 in0.0 mm
02:10 AM 7.1°F-13.8°C 3.8°F-15.7°C 86% Calm Calm -- 30.00 in1015.9 mb - 0.00 in0.0 mm 0.00 in0.0 mm
02:00 AM 7.2°F-13.8°C 3.9°F-15.6°C 86% Calm Calm -- 29.99 in1015.6 mb - 0.00 in0.0 mm 0.00 in0.0 mm
01:50 AM 7.3°F-13.7°C 4.0°F-15.6°C 86% Calm Calm -- 29.98 in1015.2 mb - 0.00 in0.0 mm 0.00 in0.0 mm
01:40 AM 7.5°F-13.6°C 4.4°F-15.3°C 87% Calm Calm -- 29.98 in1015.2 mb - 0.00 in0.0 mm 0.00 in0.0 mm
01:30 AM 7.6°F-13.6°C 4.5°F-15.3°C 87% Calm Calm -- 29.97 in1014.9 mb - 0.00 in0.0 mm 0.00 in0.0 mm
01:20 AM 7.8°F-13.4°C 4.7°F-15.2°C 87% Calm Calm -- 29.96 in1014.6 mb - 0.00 in0.0 mm 0.00 in0.0 mm
01:10 AM 7.9°F-13.4°C 4.8°F-15.1°C 87% Calm Calm 1.2 mph1.9 kmh 29.96 in1014.6 mb - 0.00 in0.0 mm 0.00 in0.0 mm
01:00 AM 8.1°F-13.3°C 5.3°F-14.8°C 88% Calm Calm -- 29.95 in1014.2 mb - 0.00 in0.0 mm 0.00 in0.0 mm
12:50 AM 8.1°F-13.3°C 5.0°F-15.0°C 87% Calm Calm -- 29.95 in1014.2 mb - 0.00 in0.0 mm 0.00 in0.0 mm
12:40 AM 8.2°F-13.2°C 5.4°F-14.8°C 88% Calm Calm -- 29.95 in1014.2 mb - 0.00 in0.0 mm 0.00 in0.0 mm
12:30 AM 8.2°F-13.2°C 5.4°F-14.8°C 88% Calm Calm -- 29.95 in1014.2 mb - 0.00 in0.0 mm 0.00 in0.0 mm
12:20 AM 8.3°F-13.2°C 5.7°F-14.6°C 89% Calm Calm -- 29.94 in1013.9 mb - 0.00 in0.0 mm 0.00 in0.0 mm
12:10 AM 8.3°F-13.2°C 5.7°F-14.6°C 89% Calm Calm -- 29.94 in1013.9 mb - 0.00 in0.0 mm 0.00 in0.0 mm
12:00 AM 8.2°F-13.2°C 5.6°F-14.7°C 89% Calm Calm -- 29.93 in1013.5 mb - 0.00 in0.0 mm 0.00 in0.0 mm